sensor_id;sensor_type;location;lat;lon;timestamp;temperature;humidity
4050;DHT22;2039;50.894;6.888;2023-04-25T00:02:24;8.90;98.20
4050;DHT22;2039;50.894;6.888;2023-04-25T00:04:50;8.80;97.00
4050;DHT22;2039;50.894;6.888;2023-04-25T00:07:16;8.80;99.30
4050;DHT22;2039;50.894;6.888;2023-04-25T00:09:42;8.70;99.90
4050;DHT22;2039;50.894;6.888;2023-04-25T00:12:08;8.70;99.90
4050;DHT22;2039;50.894;6.888;2023-04-25T00:14:34;8.80;99.90
4050;DHT22;2039;50.894;6.888;2023-04-25T00:17:01;8.70;99.90
4050;DHT22;2039;50.894;6.888;2023-04-25T00:19:28;8.70;99.90
4050;DHT22;2039;50.894;6.888;2023-04-25T00:21:57;8.60;99.90
4050;DHT22;2039;50.894;6.888;2023-04-25T00:24:23;8.50;99.90
4050;DHT22;2039;50.894;6.888;2023-04-25T00:26:48;8.50;99.90
4050;DHT22;2039;50.894;6.888;2023-04-25T00:29:14;8.50;99.90
4050;DHT22;2039;50.894;6.888;2023-04-25T00:31:40;8.50;99.90
4050;DHT22;2039;50.894;6.888;2023-04-25T00:34:06;8.50;99.90
4050;DHT22;2039;50.894;6.888;2023-04-25T00:36:33;8.50;99.90
4050;DHT22;2039;50.894;6.888;2023-04-25T00:38:59;8.50;99.90
4050;DHT22;2039;50.894;6.888;2023-04-25T00:41:26;8.60;99.90
4050;DHT22;2039;50.894;6.888;2023-04-25T00:43:52;8.60;99.90
4050;DHT22;2039;50.894;6.888;2023-04-25T00:46:19;8.50;99.90
4050;DHT22;2039;50.894;6.888;2023-04-25T00:48:45;8.40;99.90
4050;DHT22;2039;50.894;6.888;2023-04-25T00:51:16;8.40;99.90
4050;DHT22;2039;50.894;6.888;2023-04-25T00:53:42;8.30;99.90
4050;DHT22;2039;50.894;6.888;2023-04-25T00:56:08;8.30;99.90
4050;DHT22;2039;50.894;6.888;2023-04-25T00:58:33;8.30;99.90
4050;DHT22;2039;50.894;6.888;2023-04-25T01:01:01;8.20;99.90
4050;DHT22;2039;50.894;6.888;2023-04-25T01:03:26;8.20;99.90
4050;DHT22;2039;50.894;6.888;2023-04-25T01:05:54;8.20;99.90
4050;DHT22;2039;50.894;6.888;2023-04-25T01:08:23;8.10;99.90
4050;DHT22;2039;50.894;6.888;2023-04-25T01:10:49;8.20;99.90
4050;DHT22;2039;50.894;6.888;2023-04-25T01:13:15;8.20;99.90
4050;DHT22;2039;50.894;6.888;2023-04-25T01:15:40;8.10;99.90
4050;DHT22;2039;50.894;6.888;2023-04-25T01:18:06;8.10;99.90
4050;DHT22;2039;50.894;6.888;2023-04-25T01:20:33;8.00;99.90
4050;DHT22;2039;50.894;6.888;2023-04-25T01:22:59;8.00;99.90
4050;DHT22;2039;50.894;6.888;2023-04-25T01:25:25;8.00;99.90
4050;DHT22;2039;50.894;6.888;2023-04-25T01:27:51;8.00;99.90
4050;DHT22;2039;50.894;6.888;2023-04-25T01:30:17;8.00;99.90
4050;DHT22;2039;50.894;6.888;2023-04-25T01:32:43;8.00;99.90
4050;DHT22;2039;50.894;6.888;2023-04-25T01:35:11;8.00;99.90
4050;DHT22;2039;50.894;6.888;2023-04-25T01:37:44;7.90;99.90
4050;DHT22;2039;50.894;6.888;2023-04-25T01:40:11;7.90;99.90
4050;DHT22;2039;50.894;6.888;2023-04-25T01:42:41;7.80;99.90
4050;DHT22;2039;50.894;6.888;2023-04-25T01:45:08;7.80;99.90
4050;DHT22;2039;50.894;6.888;2023-04-25T01:47:34;7.80;99.90
4050;DHT22;2039;50.894;6.888;2023-04-25T01:50:03;7.70;99.90
4050;DHT22;2039;50.894;6.888;2023-04-25T01:52:29;7.80;99.90
4050;DHT22;2039;50.894;6.888;2023-04-25T01:54:57;7.80;99.90
4050;DHT22;2039;50.894;6.888;2023-04-25T01:57:23;7.80;99.90
4050;DHT22;2039;50.894;6.888;2023-04-25T01:59:49;7.70;99.90
4050;DHT22;2039;50.894;6.888;2023-04-25T02:02:15;7.70;99.90
4050;DHT22;2039;50.894;6.888;2023-04-25T02:04:41;7.70;99.90
4050;DHT22;2039;50.894;6.888;2023-04-25T02:07:06;7.60;99.90
4050;DHT22;2039;50.894;6.888;2023-04-25T02:09:32;7.60;99.90
4050;DHT22;2039;50.894;6.888;2023-04-25T02:11:58;7.50;99.90
4050;DHT22;2039;50.894;6.888;2023-04-25T02:14:24;7.50;99.90
4050;DHT22;2039;50.894;6.888;2023-04-25T02:16:50;7.50;99.90
4050;DHT22;2039;50.894;6.888;2023-04-25T02:19:16;7.50;99.90
4050;DHT22;2039;50.894;6.888;2023-04-25T02:21:42;7.50;99.90
4050;DHT22;2039;50.894;6.888;2023-04-25T02:24:08;7.50;99.90
4050;DHT22;2039;50.894;6.888;2023-04-25T02:26:34;7.60;99.90
4050;DHT22;2039;50.894;6.888;2023-04-25T02:29:00;7.60;99.90
4050;DHT22;2039;50.894;6.888;2023-04-25T02:31:26;7.60;99.90
4050;DHT22;2039;50.894;6.888;2023-04-25T02:33:52;7.70;99.90
4050;DHT22;2039;50.894;6.888;2023-04-25T02:36:18;7.70;99.90
4050;DHT22;2039;50.894;6.888;2023-04-25T02:38:43;7.60;99.90
4050;DHT22;2039;50.894;6.888;2023-04-25T02:41:09;7.60;99.90
4050;DHT22;2039;50.894;6.888;2023-04-25T02:43:35;7.70;99.90
4050;DHT22;2039;50.894;6.888;2023-04-25T02:46:00;7.70;99.90
4050;DHT22;2039;50.894;6.888;2023-04-25T02:48:26;7.70;99.90
4050;DHT22;2039;50.894;6.888;2023-04-25T02:50:52;7.70;99.90
4050;DHT22;2039;50.894;6.888;2023-04-25T02:53:18;7.80;99.90
4050;DHT22;2039;50.894;6.888;2023-04-25T02:55:43;7.70;99.90
4050;DHT22;2039;50.894;6.888;2023-04-25T02:58:09;7.60;99.90
4050;DHT22;2039;50.894;6.888;2023-04-25T03:00:35;7.60;99.90
4050;DHT22;2039;50.894;6.888;2023-04-25T03:03:01;7.60;99.90
4050;DHT22;2039;50.894;6.888;2023-04-25T03:05:27;7.50;99.90
4050;DHT22;2039;50.894;6.888;2023-04-25T03:07:52;7.50;99.90
4050;DHT22;2039;50.894;6.888;2023-04-25T03:10:21;7.50;99.90
4050;DHT22;2039;50.894;6.888;2023-04-25T03:12:47;7.60;99.90
4050;DHT22;2039;50.894;6.888;2023-04-25T03:15:12;7.60;99.90
4050;DHT22;2039;50.894;6.888;2023-04-25T03:17:38;7.70;99.90
4050;DHT22;2039;50.894;6.888;2023-04-25T03:20:05;7.60;99.90
4050;DHT22;2039;50.894;6.888;2023-04-25T03:22:31;7.60;99.90
4050;DHT22;2039;50.894;6.888;2023-04-25T03:24:56;7.60;99.90
4050;DHT22;2039;50.894;6.888;2023-04-25T03:27:22;7.60;99.90
4050;DHT22;2039;50.894;6.888;2023-04-25T03:29:48;7.60;99.90
4050;DHT22;2039;50.894;6.888;2023-04-25T03:32:14;7.60;99.90
4050;DHT22;2039;50.894;6.888;2023-04-25T03:34:39;7.60;99.90
4050;DHT22;2039;50.894;6.888;2023-04-25T03:37:05;7.60;99.90
4050;DHT22;2039;50.894;6.888;2023-04-25T03:39:31;7.70;99.90
4050;DHT22;2039;50.894;6.888;2023-04-25T03:41:56;7.80;99.90
4050;DHT22;2039;50.894;6.888;2023-04-25T03:44:22;7.80;99.90
4050;DHT22;2039;50.894;6.888;2023-04-25T03:46:49;7.80;99.90
4050;DHT22;2039;50.894;6.888;2023-04-25T03:49:16;7.80;99.90
4050;DHT22;2039;50.894;6.888;2023-04-25T03:51:41;7.80;99.90
4050;DHT22;2039;50.894;6.888;2023-04-25T03:54:07;7.80;99.90
4050;DHT22;2039;50.894;6.888;2023-04-25T03:56:33;7.70;99.90
4050;DHT22;2039;50.894;6.888;2023-04-25T03:58:59;7.60;99.90
4050;DHT22;2039;50.894;6.888;2023-04-25T04:01:24;7.70;99.90
4050;DHT22;2039;50.894;6.888;2023-04-25T04:03:50;7.70;99.90
4050;DHT22;2039;50.894;6.888;2023-04-25T04:06:16;7.70;99.90
4050;DHT22;2039;50.894;6.888;2023-04-25T04:08:42;7.70;99.90
4050;DHT22;2039;50.894;6.888;2023-04-25T04:11:08;7.70;99.90
4050;DHT22;2039;50.894;6.888;2023-04-25T04:13:34;7.80;99.90
4050;DHT22;2039;50.894;6.888;2023-04-25T04:16:00;7.70;99.90
4050;DHT22;2039;50.894;6.888;2023-04-25T04:18:25;7.80;99.90
4050;DHT22;2039;50.894;6.888;2023-04-25T04:20:51;7.80;99.90
4050;DHT22;2039;50.894;6.888;2023-04-25T04:23:17;7.70;99.90
4050;DHT22;2039;50.894;6.888;2023-04-25T04:25:43;7.70;99.90
4050;DHT22;2039;50.894;6.888;2023-04-25T04:28:08;7.70;99.90
4050;DHT22;2039;50.894;6.888;2023-04-25T04:30:36;7.70;99.90
4050;DHT22;2039;50.894;6.888;2023-04-25T04:33:02;7.70;99.90
4050;DHT22;2039;50.894;6.888;2023-04-25T04:35:28;7.70;99.90
4050;DHT22;2039;50.894;6.888;2023-04-25T04:37:54;7.80;99.90
4050;DHT22;2039;50.894;6.888;2023-04-25T04:40:20;7.80;99.90
4050;DHT22;2039;50.894;6.888;2023-04-25T04:42:47;7.70;99.90
4050;DHT22;2039;50.894;6.888;2023-04-25T04:45:13;7.70;99.90
4050;DHT22;2039;50.894;6.888;2023-04-25T04:47:39;7.70;99.90
4050;DHT22;2039;50.894;6.888;2023-04-25T04:50:07;7.70;99.90
4050;DHT22;2039;50.894;6.888;2023-04-25T04:52:35;7.80;99.90
4050;DHT22;2039;50.894;6.888;2023-04-25T04:55:02;7.80;99.90
4050;DHT22;2039;50.894;6.888;2023-04-25T04:57:28;7.80;99.90
4050;DHT22;2039;50.894;6.888;2023-04-25T04:59:54;7.80;99.90
4050;DHT22;2039;50.894;6.888;2023-04-25T05:02:20;7.80;99.90
4050;DHT22;2039;50.894;6.888;2023-04-25T05:04:46;7.90;99.90
4050;DHT22;2039;50.894;6.888;2023-04-25T05:07:12;8.00;99.90
4050;DHT22;2039;50.894;6.888;2023-04-25T05:09:38;7.90;99.90
4050;DHT22;2039;50.894;6.888;2023-04-25T05:12:04;8.00;99.90
4050;DHT22;2039;50.894;6.888;2023-04-25T05:14:31;8.00;99.90
4050;DHT22;2039;50.894;6.888;2023-04-25T05:16:56;8.00;99.90
4050;DHT22;2039;50.894;6.888;2023-04-25T05:19:25;8.00;99.90
4050;DHT22;2039;50.894;6.888;2023-04-25T05:21:51;8.00;99.90
4050;DHT22;2039;50.894;6.888;2023-04-25T05:24:16;8.00;99.90
4050;DHT22;2039;50.894;6.888;2023-04-25T05:26:42;8.10;99.90
4050;DHT22;2039;50.894;6.888;2023-04-25T05:29:08;8.10;99.90
4050;DHT22;2039;50.894;6.888;2023-04-25T05:31:33;8.10;99.90
4050;DHT22;2039;50.894;6.888;2023-04-25T05:33:59;8.20;99.90
4050;DHT22;2039;50.894;6.888;2023-04-25T05:36:25;8.20;99.90
4050;DHT22;2039;50.894;6.888;2023-04-25T05:38:51;8.30;99.90
4050;DHT22;2039;50.894;6.888;2023-04-25T05:41:17;8.30;99.90
4050;DHT22;2039;50.894;6.888;2023-04-25T05:43:43;8.40;99.90
4050;DHT22;2039;50.894;6.888;2023-04-25T05:46:12;8.30;99.90
4050;DHT22;2039;50.894;6.888;2023-04-25T05:48:39;8.20;99.90
4050;DHT22;2039;50.894;6.888;2023-04-25T05:51:05;8.30;99.90
4050;DHT22;2039;50.894;6.888;2023-04-25T05:53:30;8.20;99.90
4050;DHT22;2039;50.894;6.888;2023-04-25T05:55:56;8.30;99.90
4050;DHT22;2039;50.894;6.888;2023-04-25T05:58:22;8.30;99.90
4050;DHT22;2039;50.894;6.888;2023-04-25T06:00:48;8.30;99.90
4050;DHT22;2039;50.894;6.888;2023-04-25T06:03:14;8.30;99.90
4050;DHT22;2039;50.894;6.888;2023-04-25T06:05:42;8.40;99.90
4050;DHT22;2039;50.894;6.888;2023-04-25T06:08:08;8.40;99.90
4050;DHT22;2039;50.894;6.888;2023-04-25T06:10:34;8.50;99.90
4050;DHT22;2039;50.894;6.888;2023-04-25T06:13:00;8.50;99.90
4050;DHT22;2039;50.894;6.888;2023-04-25T06:15:25;8.60;99.90
4050;DHT22;2039;50.894;6.888;2023-04-25T06:17:51;8.60;99.90
4050;DHT22;2039;50.894;6.888;2023-04-25T06:20:17;8.70;99.90
4050;DHT22;2039;50.894;6.888;2023-04-25T06:22:43;8.80;97.50
4050;DHT22;2039;50.894;6.888;2023-04-25T06:25:09;8.70;93.00
4050;DHT22;2039;50.894;6.888;2023-04-25T06:27:34;8.70;95.30
4050;DHT22;2039;50.894;6.888;2023-04-25T06:30:00;8.60;96.60
4050;DHT22;2039;50.894;6.888;2023-04-25T06:32:26;8.70;97.10
4050;DHT22;2039;50.894;6.888;2023-04-25T06:34:54;8.80;96.60
4050;DHT22;2039;50.894;6.888;2023-04-25T06:37:19;8.80;94.10
4050;DHT22;2039;50.894;6.888;2023-04-25T06:39:45;8.80;90.90
4050;DHT22;2039;50.894;6.888;2023-04-25T06:42:11;8.80;91.90
4050;DHT22;2039;50.894;6.888;2023-04-25T06:44:36;8.90;92.70
4050;DHT22;2039;50.894;6.888;2023-04-25T06:47:05;9.00;88.20
4050;DHT22;2039;50.894;6.888;2023-04-25T06:49:31;9.00;63.40
4050;DHT22;2039;50.894;6.888;2023-04-25T06:51:59;8.90;69.50
4050;DHT22;2039;50.894;6.888;2023-04-25T06:54:25;8.80;73.50
4050;DHT22;2039;50.894;6.888;2023-04-25T06:56:53;8.80;76.10
4050;DHT22;2039;50.894;6.888;2023-04-25T06:59:18;8.90;70.00
4050;DHT22;2039;50.894;6.888;2023-04-25T07:01:52;8.80;63.40
4050;DHT22;2039;50.894;6.888;2023-04-25T07:04:17;8.80;69.70
4050;DHT22;2039;50.894;6.888;2023-04-25T07:06:43;9.00;75.90
4050;DHT22;2039;50.894;6.888;2023-04-25T07:09:13;9.10;72.40
4050;DHT22;2039;50.894;6.888;2023-04-25T07:11:39;9.30;65.80
4050;DHT22;2039;50.894;6.888;2023-04-25T07:14:05;9.30;59.70
4050;DHT22;2039;50.894;6.888;2023-04-25T07:16:33;9.20;47.10
4050;DHT22;2039;50.894;6.888;2023-04-25T07:18:59;9.20;57.60
4050;DHT22;2039;50.894;6.888;2023-04-25T07:21:25;9.30;51.30
4050;DHT22;2039;50.894;6.888;2023-04-25T07:23:51;9.50;50.30
4050;DHT22;2039;50.894;6.888;2023-04-25T07:26:20;9.40;31.60
4050;DHT22;2039;50.894;6.888;2023-04-25T07:28:45;9.50;41.30
4050;DHT22;2039;50.894;6.888;2023-04-25T07:31:15;9.50;23.70
4050;DHT22;2039;50.894;6.888;2023-04-25T07:33:46;9.30;11.70
4050;DHT22;2039;50.894;6.888;2023-04-25T07:36:12;9.20;6.90
4050;DHT22;2039;50.894;6.888;2023-04-25T07:38:39;9.20;17.10
4050;DHT22;2039;50.894;6.888;2023-04-25T07:41:05;9.10;21.90
4050;DHT22;2039;50.894;6.888;2023-04-25T07:43:30;9.10;10.50
4050;DHT22;2039;50.894;6.888;2023-04-25T07:45:56;9.10;19.80
4050;DHT22;2039;50.894;6.888;2023-04-25T07:48:22;9.30;23.80
4050;DHT22;2039;50.894;6.888;2023-04-25T07:50:48;9.40;11.10
4050;DHT22;2039;50.894;6.888;2023-04-25T07:53:14;9.40;19.20
4050;DHT22;2039;50.894;6.888;2023-04-25T07:55:40;9.40;25.30
4050;DHT22;2039;50.894;6.888;2023-04-25T07:58:11;9.50;28.00
4050;DHT22;2039;50.894;6.888;2023-04-25T08:00:37;9.40;27.20
4050;DHT22;2039;50.894;6.888;2023-04-25T08:03:03;9.50;19.10
4050;DHT22;2039;50.894;6.888;2023-04-25T08:05:29;9.70;21.50
4050;DHT22;2039;50.894;6.888;2023-04-25T08:07:55;9.70;13.70
4050;DHT22;2039;50.894;6.888;2023-04-25T08:10:22;9.80;7.50
4050;DHT22;2039;50.894;6.888;2023-04-25T08:12:48;9.80;7.70
4050;DHT22;2039;50.894;6.888;2023-04-25T08:15:14;9.60;1.00
4050;DHT22;2039;50.894;6.888;2023-04-25T08:17:40;9.60;1.00
4050;DHT22;2039;50.894;6.888;2023-04-25T08:20:07;9.70;8.50
4050;DHT22;2039;50.894;6.888;2023-04-25T08:22:32;9.80;7.40
4050;DHT22;2039;50.894;6.888;2023-04-25T08:24:59;10.00;1.00
4050;DHT22;2039;50.894;6.888;2023-04-25T08:27:25;10.10;3.30
4050;DHT22;2039;50.894;6.888;2023-04-25T08:29:51;9.90;1.00
4050;DHT22;2039;50.894;6.888;2023-04-25T08:32:17;9.90;1.00
4050;DHT22;2039;50.894;6.888;2023-04-25T08:34:43;10.00;1.00
4050;DHT22;2039;50.894;6.888;2023-04-25T08:37:12;10.30;1.00
4050;DHT22;2039;50.894;6.888;2023-04-25T08:39:38;10.30;1.00
4050;DHT22;2039;50.894;6.888;2023-04-25T08:42:06;10.30;1.00
4050;DHT22;2039;50.894;6.888;2023-04-25T08:44:36;10.50;1.00
4050;DHT22;2039;50.894;6.888;2023-04-25T08:47:08;10.60;1.00
4050;DHT22;2039;50.894;6.888;2023-04-25T08:49:34;10.70;1.00
4050;DHT22;2039;50.894;6.888;2023-04-25T08:52:02;10.80;1.00
4050;DHT22;2039;50.894;6.888;2023-04-25T08:54:31;10.90;1.00
4050;DHT22;2039;50.894;6.888;2023-04-25T08:56:57;11.00;1.00
4050;DHT22;2039;50.894;6.888;2023-04-25T08:59:25;10.90;1.00
4050;DHT22;2039;50.894;6.888;2023-04-25T09:01:52;10.70;1.00
4050;DHT22;2039;50.894;6.888;2023-04-25T09:04:21;10.70;1.00
4050;DHT22;2039;50.894;6.888;2023-04-25T09:06:47;10.70;1.00
4050;DHT22;2039;50.894;6.888;2023-04-25T09:09:13;10.70;1.00
4050;DHT22;2039;50.894;6.888;2023-04-25T09:11:39;10.70;1.00
4050;DHT22;2039;50.894;6.888;2023-04-25T09:14:19;10.70;1.00
4050;DHT22;2039;50.894;6.888;2023-04-25T09:16:57;10.70;1.00
4050;DHT22;2039;50.894;6.888;2023-04-25T09:19:31;10.60;1.00
4050;DHT22;2039;50.894;6.888;2023-04-25T09:21:59;10.30;1.00
4050;DHT22;2039;50.894;6.888;2023-04-25T09:24:39;10.00;1.00
4050;DHT22;2039;50.894;6.888;2023-04-25T09:27:20;10.00;1.00
4050;DHT22;2039;50.894;6.888;2023-04-25T09:29:48;10.10;1.00
4050;DHT22;2039;50.894;6.888;2023-04-25T09:32:23;10.20;1.00
4050;DHT22;2039;50.894;6.888;2023-04-25T09:34:54;10.00;1.00
4050;DHT22;2039;50.894;6.888;2023-04-25T09:37:28;10.00;1.00
4050;DHT22;2039;50.894;6.888;2023-04-25T09:39:59;10.10;1.00
4050;DHT22;2039;50.894;6.888;2023-04-25T09:42:26;10.10;1.00
4050;DHT22;2039;50.894;6.888;2023-04-25T09:44:56;10.10;1.00
4050;DHT22;2039;50.894;6.888;2023-04-25T09:47:26;10.30;1.00
4050;DHT22;2039;50.894;6.888;2023-04-25T09:49:53;10.30;1.00
4050;DHT22;2039;50.894;6.888;2023-04-25T09:52:21;10.40;1.00
4050;DHT22;2039;50.894;6.888;2023-04-25T09:54:48;10.40;1.00
4050;DHT22;2039;50.894;6.888;2023-04-25T09:57:22;10.50;1.00
4050;DHT22;2039;50.894;6.888;2023-04-25T09:59:55;10.50;1.00
4050;DHT22;2039;50.894;6.888;2023-04-25T10:02:23;10.60;1.00
4050;DHT22;2039;50.894;6.888;2023-04-25T10:04:51;10.80;1.00
4050;DHT22;2039;50.894;6.888;2023-04-25T10:07:19;10.90;1.00
4050;DHT22;2039;50.894;6.888;2023-04-25T10:09:48;10.90;1.00
4050;DHT22;2039;50.894;6.888;2023-04-25T10:12:16;10.80;1.00
4050;DHT22;2039;50.894;6.888;2023-04-25T10:14:42;10.70;1.00
4050;DHT22;2039;50.894;6.888;2023-04-25T10:17:10;10.70;1.00
4050;DHT22;2039;50.894;6.888;2023-04-25T10:19:36;10.50;1.00
4050;DHT22;2039;50.894;6.888;2023-04-25T10:25:01;10.40;1.00
4050;DHT22;2039;50.894;6.888;2023-04-25T10:27:29;10.30;1.00
4050;DHT22;2039;50.894;6.888;2023-04-25T10:30:10;10.20;1.00
4050;DHT22;2039;50.894;6.888;2023-04-25T10:32:38;10.20;1.00
4050;DHT22;2039;50.894;6.888;2023-04-25T10:35:27;10.20;1.00
4050;DHT22;2039;50.894;6.888;2023-04-25T10:38:13;10.20;1.00
4050;DHT22;2039;50.894;6.888;2023-04-25T10:40:39;10.30;1.00
4050;DHT22;2039;50.894;6.888;2023-04-25T10:45:53;10.60;1.00
4050;DHT22;2039;50.894;6.888;2023-04-25T10:48:29;10.60;1.00
4050;DHT22;2039;50.894;6.888;2023-04-25T10:51:12;10.50;1.00
4050;DHT22;2039;50.894;6.888;2023-04-25T10:53:56;11.00;1.00
4050;DHT22;2039;50.894;6.888;2023-04-25T10:56:25;11.30;1.00
4050;DHT22;2039;50.894;6.888;2023-04-25T10:58:50;11.70;1.00
4050;DHT22;2039;50.894;6.888;2023-04-25T11:01:21;11.50;1.00
4050;DHT22;2039;50.894;6.888;2023-04-25T11:03:57;11.30;1.00
4050;DHT22;2039;50.894;6.888;2023-04-25T11:08:53;11.10;1.00
4050;DHT22;2039;50.894;6.888;2023-04-25T11:11:19;10.80;1.00
4050;DHT22;2039;50.894;6.888;2023-04-25T11:13:49;10.50;1.00
4050;DHT22;2039;50.894;6.888;2023-04-25T11:16:16;10.30;1.00
4050;DHT22;2039;50.894;6.888;2023-04-25T11:18:43;10.00;1.00
4050;DHT22;2039;50.894;6.888;2023-04-25T11:21:09;9.80;1.00
4050;DHT22;2039;50.894;6.888;2023-04-25T11:23:35;9.70;1.00
4050;DHT22;2039;50.894;6.888;2023-04-25T11:26:03;9.70;1.00
4050;DHT22;2039;50.894;6.888;2023-04-25T11:28:29;9.80;1.00
4050;DHT22;2039;50.894;6.888;2023-04-25T11:30:57;9.80;1.00
4050;DHT22;2039;50.894;6.888;2023-04-25T11:33:24;10.00;1.00
4050;DHT22;2039;50.894;6.888;2023-04-25T11:35:54;10.10;1.00
4050;DHT22;2039;50.894;6.888;2023-04-25T11:38:24;10.30;1.00
4050;DHT22;2039;50.894;6.888;2023-04-25T11:40:54;10.60;1.00
4050;DHT22;2039;50.894;6.888;2023-04-25T11:43:21;10.80;1.00
4050;DHT22;2039;50.894;6.888;2023-04-25T11:45:50;11.00;1.00
4050;DHT22;2039;50.894;6.888;2023-04-25T11:48:17;11.50;1.00
4050;DHT22;2039;50.894;6.888;2023-04-25T11:50:43;11.80;1.00
4050;DHT22;2039;50.894;6.888;2023-04-25T11:53:09;11.80;1.00
4050;DHT22;2039;50.894;6.888;2023-04-25T11:55:35;11.70;1.00
4050;DHT22;2039;50.894;6.888;2023-04-25T11:58:01;11.80;1.00
4050;DHT22;2039;50.894;6.888;2023-04-25T12:00:29;11.80;1.00
4050;DHT22;2039;50.894;6.888;2023-04-25T12:02:56;11.70;1.00
4050;DHT22;2039;50.894;6.888;2023-04-25T12:05:30;11.80;1.00
4050;DHT22;2039;50.894;6.888;2023-04-25T12:07:56;11.90;1.00
4050;DHT22;2039;50.894;6.888;2023-04-25T12:10:22;12.00;1.00
4050;DHT22;2039;50.894;6.888;2023-04-25T12:12:49;12.20;1.00
4050;DHT22;2039;50.894;6.888;2023-04-25T12:15:25;12.60;1.00
4050;DHT22;2039;50.894;6.888;2023-04-25T12:17:53;12.90;1.00
4050;DHT22;2039;50.894;6.888;2023-04-25T12:20:23;13.00;1.00
4050;DHT22;2039;50.894;6.888;2023-04-25T12:22:50;13.00;1.00
4050;DHT22;2039;50.894;6.888;2023-04-25T12:25:42;13.10;1.00
4050;DHT22;2039;50.894;6.888;2023-04-25T12:28:23;12.90;1.00
4050;DHT22;2039;50.894;6.888;2023-04-25T12:31:02;13.10;1.00
4050;DHT22;2039;50.894;6.888;2023-04-25T12:33:33;12.90;1.00
4050;DHT22;2039;50.894;6.888;2023-04-25T12:36:00;12.90;1.00
4050;DHT22;2039;50.894;6.888;2023-04-25T12:38:31;12.90;1.00
4050;DHT22;2039;50.894;6.888;2023-04-25T12:40:57;13.00;1.00
4050;DHT22;2039;50.894;6.888;2023-04-25T12:43:24;12.70;1.00
4050;DHT22;2039;50.894;6.888;2023-04-25T12:45:50;12.70;1.00
4050;DHT22;2039;50.894;6.888;2023-04-25T12:48:17;12.60;1.00
4050;DHT22;2039;50.894;6.888;2023-04-25T12:50:43;12.30;1.00
4050;DHT22;2039;50.894;6.888;2023-04-25T12:53:09;12.00;1.00
4050;DHT22;2039;50.894;6.888;2023-04-25T12:55:35;11.70;1.00
4050;DHT22;2039;50.894;6.888;2023-04-25T12:58:01;11.50;1.00
4050;DHT22;2039;50.894;6.888;2023-04-25T13:00:28;11.50;1.00
4050;DHT22;2039;50.894;6.888;2023-04-25T13:02:55;11.20;1.00
4050;DHT22;2039;50.894;6.888;2023-04-25T13:05:21;11.00;1.00
4050;DHT22;2039;50.894;6.888;2023-04-25T13:07:46;10.80;1.00
4050;DHT22;2039;50.894;6.888;2023-04-25T13:10:12;10.80;1.00
4050;DHT22;2039;50.894;6.888;2023-04-25T13:12:38;10.70;1.00
4050;DHT22;2039;50.894;6.888;2023-04-25T13:15:04;10.60;1.00
4050;DHT22;2039;50.894;6.888;2023-04-25T13:17:30;10.60;1.00
4050;DHT22;2039;50.894;6.888;2023-04-25T13:19:55;10.70;1.00
4050;DHT22;2039;50.894;6.888;2023-04-25T13:22:21;10.80;1.00
4050;DHT22;2039;50.894;6.888;2023-04-25T13:24:47;10.90;1.00
4050;DHT22;2039;50.894;6.888;2023-04-25T13:27:13;11.00;1.00
4050;DHT22;2039;50.894;6.888;2023-04-25T13:29:38;10.90;1.00
4050;DHT22;2039;50.894;6.888;2023-04-25T13:32:06;11.10;1.00
4050;DHT22;2039;50.894;6.888;2023-04-25T13:34:32;11.40;1.00
4050;DHT22;2039;50.894;6.888;2023-04-25T13:36:58;11.40;1.00
4050;DHT22;2039;50.894;6.888;2023-04-25T13:39:24;11.50;1.00
4050;DHT22;2039;50.894;6.888;2023-04-25T13:41:50;11.60;1.00
4050;DHT22;2039;50.894;6.888;2023-04-25T13:44:16;11.60;1.00
4050;DHT22;2039;50.894;6.888;2023-04-25T13:46:41;11.40;1.00
4050;DHT22;2039;50.894;6.888;2023-04-25T13:49:07;11.50;1.00
4050;DHT22;2039;50.894;6.888;2023-04-25T13:51:33;11.80;1.00
4050;DHT22;2039;50.894;6.888;2023-04-25T13:53:59;12.10;1.00
4050;DHT22;2039;50.894;6.888;2023-04-25T13:56:27;12.50;1.00
4050;DHT22;2039;50.894;6.888;2023-04-25T13:58:53;12.90;1.00
4050;DHT22;2039;50.894;6.888;2023-04-25T14:01:19;13.10;1.00
4050;DHT22;2039;50.894;6.888;2023-04-25T14:03:45;12.60;1.00
4050;DHT22;2039;50.894;6.888;2023-04-25T14:06:11;12.30;1.00
4050;DHT22;2039;50.894;6.888;2023-04-25T14:08:38;12.10;1.00
4050;DHT22;2039;50.894;6.888;2023-04-25T14:11:04;11.90;1.00
4050;DHT22;2039;50.894;6.888;2023-04-25T14:13:30;12.10;1.00
4050;DHT22;2039;50.894;6.888;2023-04-25T14:15:55;11.90;1.00
4050;DHT22;2039;50.894;6.888;2023-04-25T14:18:21;11.80;1.00
4050;DHT22;2039;50.894;6.888;2023-04-25T14:20:47;11.70;1.00
4050;DHT22;2039;50.894;6.888;2023-04-25T14:23:13;11.80;1.00
4050;DHT22;2039;50.894;6.888;2023-04-25T14:25:41;11.80;1.00
4050;DHT22;2039;50.894;6.888;2023-04-25T14:28:07;11.70;1.00
4050;DHT22;2039;50.894;6.888;2023-04-25T14:30:33;11.60;1.00
4050;DHT22;2039;50.894;6.888;2023-04-25T14:32:59;11.60;1.00
4050;DHT22;2039;50.894;6.888;2023-04-25T14:35:25;11.60;1.00
4050;DHT22;2039;50.894;6.888;2023-04-25T14:37:50;11.50;1.00
4050;DHT22;2039;50.894;6.888;2023-04-25T14:40:16;11.60;1.00
4050;DHT22;2039;50.894;6.888;2023-04-25T14:42:42;11.50;1.00
4050;DHT22;2039;50.894;6.888;2023-04-25T14:45:08;11.60;1.00
4050;DHT22;2039;50.894;6.888;2023-04-25T14:47:35;11.60;1.00
4050;DHT22;2039;50.894;6.888;2023-04-25T14:50:01;11.70;1.00
4050;DHT22;2039;50.894;6.888;2023-04-25T14:52:27;12.10;1.00
4050;DHT22;2039;50.894;6.888;2023-04-25T14:54:53;12.20;1.00
4050;DHT22;2039;50.894;6.888;2023-04-25T14:57:18;12.30;1.00
4050;DHT22;2039;50.894;6.888;2023-04-25T14:59:44;12.20;1.00
4050;DHT22;2039;50.894;6.888;2023-04-25T15:02:11;12.20;1.00
4050;DHT22;2039;50.894;6.888;2023-04-25T15:04:36;12.30;1.00
4050;DHT22;2039;50.894;6.888;2023-04-25T15:07:05;12.50;1.00
4050;DHT22;2039;50.894;6.888;2023-04-25T15:09:34;12.70;1.00
4050;DHT22;2039;50.894;6.888;2023-04-25T15:11:59;13.00;1.00
4050;DHT22;2039;50.894;6.888;2023-04-25T15:14:25;13.10;1.00
4050;DHT22;2039;50.894;6.888;2023-04-25T15:16:51;13.10;1.00
4050;DHT22;2039;50.894;6.888;2023-04-25T15:19:17;13.20;1.00
4050;DHT22;2039;50.894;6.888;2023-04-25T15:21:43;13.40;1.00
4050;DHT22;2039;50.894;6.888;2023-04-25T15:24:08;13.60;1.00
4050;DHT22;2039;50.894;6.888;2023-04-25T15:26:34;13.70;1.00
4050;DHT22;2039;50.894;6.888;2023-04-25T15:29:00;13.50;1.00
4050;DHT22;2039;50.894;6.888;2023-04-25T15:31:25;13.40;1.00
4050;DHT22;2039;50.894;6.888;2023-04-25T15:33:51;13.60;1.00
4050;DHT22;2039;50.894;6.888;2023-04-25T15:36:16;13.60;1.00
4050;DHT22;2039;50.894;6.888;2023-04-25T15:38:43;13.50;1.00
4050;DHT22;2039;50.894;6.888;2023-04-25T15:41:09;13.40;1.00
4050;DHT22;2039;50.894;6.888;2023-04-25T15:43:35;13.40;1.00
4050;DHT22;2039;50.894;6.888;2023-04-25T15:46:03;13.20;1.00
4050;DHT22;2039;50.894;6.888;2023-04-25T15:48:30;12.60;1.00
4050;DHT22;2039;50.894;6.888;2023-04-25T15:50:57;12.20;1.00
4050;DHT22;2039;50.894;6.888;2023-04-25T15:53:22;11.90;1.00
4050;DHT22;2039;50.894;6.888;2023-04-25T15:55:48;11.90;1.00
4050;DHT22;2039;50.894;6.888;2023-04-25T15:58:14;12.00;1.00
4050;DHT22;2039;50.894;6.888;2023-04-25T16:00:39;12.20;1.00
4050;DHT22;2039;50.894;6.888;2023-04-25T16:03:05;12.10;1.00
4050;DHT22;2039;50.894;6.888;2023-04-25T16:05:32;12.10;1.00
4050;DHT22;2039;50.894;6.888;2023-04-25T16:07:57;12.00;1.00
4050;DHT22;2039;50.894;6.888;2023-04-25T16:10:24;12.00;1.00
4050;DHT22;2039;50.894;6.888;2023-04-25T16:12:51;11.70;1.00
4050;DHT22;2039;50.894;6.888;2023-04-25T16:15:17;11.60;1.00
4050;DHT22;2039;50.894;6.888;2023-04-25T16:17:43;11.70;1.00
4050;DHT22;2039;50.894;6.888;2023-04-25T16:20:11;11.70;1.00
4050;DHT22;2039;50.894;6.888;2023-04-25T16:22:42;11.60;1.00
4050;DHT22;2039;50.894;6.888;2023-04-25T16:25:09;11.70;1.00
4050;DHT22;2039;50.894;6.888;2023-04-25T16:27:36;12.00;1.00